メインページ
METAR-TAF:

METAR-TAF

空港 :

プリンストン, ブリティッシュコロンビア州, カナダ

緯度: 49-28N, 経度: 120-31W, 海抜: 700m

現時点の気象観測

当レポートは7時間42分前の01:00(UTC)に作成
西/北西の風 5kt
気温 25°C
湿度 39%
気圧 1016 hPa
視程: 40.2km
高度9800ftの雲はほとんどない
高度14000ftの雲は散在している
高度31000ftの曇り

METAR: CYDC 030100Z 30005KT 25SM FEW098 SCT140 OVC310 25/10 A2999 RMK AC1AS3CI4 LAST STFD OB/NEXT 03 1300UTC SLP146 DENSITY ALT 3900FT

時間: 01:42 (08:42 UTC)


TAF: 見つかりません

4,000以上の空港の気象観測と天気予報(METAR報とTAF報)

利用可能な観測所は地図上に黄色い丸と赤い丸で示す。

丸の上にカーソルを重ねると観測所名を参照できる。

次にクリックすると気象観測と天気予報を参照できる。

マップの切り替え:黒色「×」印の緑ボタンをクリックして拡大、「-」印の緑ボタンをクリックして縮小、緑色の三角印をクリックして隣りの地図に切り替え


METAR-TAF: